This is the latest recevied weather packets stored in our database for station/object KL1SF-7. If no packets are shown the sender has not sent any weather packets the latest 10 day(s).
| Time | Temp. | Humidity | Pressure | Rain* | Wind** | Luminosity | Snow |
|---|---|---|---|---|---|---|---|
| 1777932816 | 15° C | 24% | 1012.9 hPa | 0 mm | - | - | - |
| 1777932213 | 15° C | 24% | 1013 hPa | 0 mm | - | - | - |
| 1777931614 | 15° C | 24% | 1013.3 hPa | 0 mm | - | - | - |
| 1777931009 | 15.56° C | 22% | 1013.3 hPa | 0 mm | - | - | - |
| 1777930422 | 15.56° C | 24% | 1013.5 hPa | 0 mm | - | - | - |
| 1777929804 | 16.11° C | 24% | 1013.8 hPa | 0 mm | - | - | - |
| 1777929217 | 15.56° C | 25% | 1013.8 hPa | 0 mm | - | - | - |
| 1777928613 | 15° C | 26% | 1014 hPa | 0 mm | - | - | - |
| 1777928014 | 15° C | 27% | 1013.8 hPa | 0 mm | - | - | - |
| 1777927410 | 15° C | 27% | 1013.8 hPa | 0 mm | - | - | - |
| 1777926823 | 15° C | 27% | 1014.1 hPa | 0 mm | - | - | - |
| 1777926204 | 15° C | 26% | 1014.2 hPa | 0 mm | - | - | - |
| 1777925613 | 15° C | 26% | 1014.2 hPa | 0 mm | - | - | - |
| 1777925030 | 14.44° C | 27% | 1014.3 hPa | 0 mm | - | - | - |
| 1777924411 | 14.44° C | 28% | 1014.2 hPa | 0 mm | - | - | - |
| 1777923821 | 14.44° C | 27% | 1014.2 hPa | 0 mm | - | - | - |
| 1777923213 | 14.44° C | 27% | 1014.5 hPa | 0 mm | - | - | - |
| 1777922615 | 14.44° C | 27% | 1014.6 hPa | 0 mm | - | - | - |
| 1777922004 | 14.44° C | 28% | 1014.6 hPa | 0 mm | - | - | - |
| 1777921422 | 13.89° C | 31% | 1014.8 hPa | 0 mm | - | - | - |
| 1777920821 | 13.89° C | 29% | 1014.9 hPa | 0 mm | - | - | - |
| 1777920211 | 13.33° C | 30% | 1014.9 hPa | 0 mm | - | - | - |
| 1777919624 | 13.33° C | 29% | 1015.1 hPa | 0 mm | - | - | - |
| 1777919004 | 13.33° C | 31% | 1014.9 hPa | 0 mm | - | - | - |
| 1777918414 | 12.78° C | 32% | 1014.9 hPa | 0 mm | - | - | - |
* Rain since midnight (hover to see other rain measurements)
** Current wind speed in m/s (hover to see current wind gust speed)